sensor_id;sensor_type;location;lat;lon;timestamp;pressure;altitude;pressure_sealevel;temperature;humidity
14067;BME280;7108;42.684;23.350;2022-07-19T00:01:39;95954.47;;;21.01;68.30
14067;BME280;7108;42.684;23.350;2022-07-19T00:04:05;95954.13;;;20.95;68.67
14067;BME280;7108;42.684;23.350;2022-07-19T00:06:30;95938.50;;;20.92;68.95
14067;BME280;7108;42.684;23.350;2022-07-19T00:08:56;95943.97;;;20.96;69.26
14067;BME280;7108;42.684;23.350;2022-07-19T00:11:22;95943.91;;;21.03;69.06
14067;BME280;7108;42.684;23.350;2022-07-19T00:13:47;95925.97;;;20.91;69.10
14067;BME280;7108;42.684;23.350;2022-07-19T00:16:13;95945.47;;;21.00;70.17
14067;BME280;7108;42.684;23.350;2022-07-19T00:18:40;95951.00;;;20.97;70.03
14067;BME280;7108;42.684;23.350;2022-07-19T00:21:05;95948.72;;;20.88;70.68
14067;BME280;7108;42.684;23.350;2022-07-19T00:23:30;95953.81;;;20.90;70.92
14067;BME280;7108;42.684;23.350;2022-07-19T00:25:56;95939.81;;;20.77;71.37
14067;BME280;7108;42.684;23.350;2022-07-19T00:28:21;95942.19;;;20.75;71.91
14067;BME280;7108;42.684;23.350;2022-07-19T00:30:47;95944.16;;;20.71;72.84
14067;BME280;7108;42.684;23.350;2022-07-19T00:33:12;95936.38;;;20.66;72.41
14067;BME280;7108;42.684;23.350;2022-07-19T00:35:38;95949.63;;;20.75;72.06
14067;BME280;7108;42.684;23.350;2022-07-19T00:38:10;95936.38;;;20.66;72.70
14067;BME280;7108;42.684;23.350;2022-07-19T00:40:37;95941.84;;;20.66;73.05
14067;BME280;7108;42.684;23.350;2022-07-19T00:43:03;95948.84;;;20.71;73.05
14067;BME280;7108;42.684;23.350;2022-07-19T00:45:29;95945.31;;;20.70;73.41
14067;BME280;7108;42.684;23.350;2022-07-19T00:47:55;95946.16;;;20.67;73.13
14067;BME280;7108;42.684;23.350;2022-07-19T00:50:21;95944.63;;;20.59;73.31
14067;BME280;7108;42.684;23.350;2022-07-19T00:52:53;95932.88;;;20.62;73.47
14067;BME280;7108;42.684;23.350;2022-07-19T00:55:19;95936.03;;;20.61;73.69
14067;BME280;7108;42.684;23.350;2022-07-19T00:57:45;95938.41;;;20.55;74.34
14067;BME280;7108;42.684;23.350;2022-07-19T01:00:13;95939.16;;;20.59;74.26
14067;BME280;7108;42.684;23.350;2022-07-19T01:02:39;95940.38;;;20.58;74.85
14067;BME280;7108;42.684;23.350;2022-07-19T01:05:08;95936.88;;;20.51;74.84
14067;BME280;7108;42.684;23.350;2022-07-19T01:07:35;95938.81;;;20.54;75.60
14067;BME280;7108;42.684;23.350;2022-07-19T01:10:04;95943.94;;;20.48;75.93
14067;BME280;7108;42.684;23.350;2022-07-19T01:12:31;95943.56;;;20.46;76.21
14067;BME280;7108;42.684;23.350;2022-07-19T01:14:57;95949.78;;;20.54;75.83
14067;BME280;7108;42.684;23.350;2022-07-19T01:17:24;95948.56;;;20.58;75.47
14067;BME280;7108;42.684;23.350;2022-07-19T01:19:49;95930.25;;;20.48;75.40
14067;BME280;7108;42.684;23.350;2022-07-19T01:22:15;95933.41;;;20.43;75.91
14067;BME280;7108;42.684;23.350;2022-07-19T01:24:40;95939.69;;;20.44;76.38
14067;BME280;7108;42.684;23.350;2022-07-19T01:27:06;95922.91;;;20.39;76.67
14067;BME280;7108;42.684;23.350;2022-07-19T01:29:33;95936.13;;;20.47;76.59
14067;BME280;7108;42.684;23.350;2022-07-19T01:32:02;95878.50;;;20.14;76.83
14067;BME280;7108;42.684;23.350;2022-07-19T01:34:27;95934.66;;;20.36;76.83
14067;BME280;7108;42.684;23.350;2022-07-19T01:36:53;95927.66;;;20.31;77.75
14067;BME280;7108;42.684;23.350;2022-07-19T01:39:18;95930.41;;;20.28;78.34
14067;BME280;7108;42.684;23.350;2022-07-19T01:41:43;95921.53;;;20.13;79.05
14067;BME280;7108;42.684;23.350;2022-07-19T01:44:09;95928.47;;;20.25;78.77
14067;BME280;7108;42.684;23.350;2022-07-19T01:46:34;95924.28;;;20.13;79.40
14067;BME280;7108;42.684;23.350;2022-07-19T01:49:00;95909.50;;;20.00;79.97
14067;BME280;7108;42.684;23.350;2022-07-19T01:51:25;95918.50;;;20.01;80.63
14067;BME280;7108;42.684;23.350;2022-07-19T01:53:51;95924.75;;;19.98;81.33
14067;BME280;7108;42.684;23.350;2022-07-19T01:56:16;95929.06;;;19.95;82.54
14067;BME280;7108;42.684;23.350;2022-07-19T01:58:41;95911.13;;;19.84;82.92
14067;BME280;7108;42.684;23.350;2022-07-19T02:01:07;95918.91;;;19.89;82.84
14067;BME280;7108;42.684;23.350;2022-07-19T02:03:32;95924.75;;;19.94;82.57
14067;BME280;7108;42.684;23.350;2022-07-19T02:05:58;95924.41;;;19.92;83.14
14067;BME280;7108;42.684;23.350;2022-07-19T02:08:23;95932.19;;;19.87;83.72
14067;BME280;7108;42.684;23.350;2022-07-19T02:10:50;95937.28;;;19.92;83.25
14067;BME280;7108;42.684;23.350;2022-07-19T02:13:16;95934.19;;;19.79;83.69
14067;BME280;7108;42.684;23.350;2022-07-19T02:15:41;95925.66;;;19.67;84.45
14067;BME280;7108;42.684;23.350;2022-07-19T02:18:07;95926.81;;;19.70;84.80
14067;BME280;7108;42.684;23.350;2022-07-19T02:20:32;95926.44;;;19.71;84.92
14067;BME280;7108;42.684;23.350;2022-07-19T02:22:57;95941.25;;;19.77;84.98
14067;BME280;7108;42.684;23.350;2022-07-19T02:25:24;95936.94;;;19.76;85.00
14067;BME280;7108;42.684;23.350;2022-07-19T02:27:49;95935.34;;;19.82;84.34
14067;BME280;7108;42.684;23.350;2022-07-19T02:30:14;95938.09;;;19.82;84.33
14067;BME280;7108;42.684;23.350;2022-07-19T02:32:42;95950.59;;;19.86;84.51
14067;BME280;7108;42.684;23.350;2022-07-19T02:35:09;95935.41;;;19.75;84.54
14067;BME280;7108;42.684;23.350;2022-07-19T02:37:36;95935.03;;;19.73;84.65
14067;BME280;7108;42.684;23.350;2022-07-19T02:40:02;95938.94;;;19.72;84.98
14067;BME280;7108;42.684;23.350;2022-07-19T02:42:28;95938.16;;;19.72;85.38
14067;BME280;7108;42.684;23.350;2022-07-19T02:44:54;95932.31;;;19.66;86.32
14067;BME280;7108;42.684;23.350;2022-07-19T02:47:19;95944.81;;;19.67;85.87
14067;BME280;7108;42.684;23.350;2022-07-19T02:49:47;95935.44;;;19.65;85.83
14067;BME280;7108;42.684;23.350;2022-07-19T02:52:12;95945.63;;;19.64;86.30
14067;BME280;7108;42.684;23.350;2022-07-19T02:54:38;95937.03;;;19.55;85.38
14067;BME280;7108;42.684;23.350;2022-07-19T02:57:04;95939.81;;;19.48;86.98
14067;BME280;7108;42.684;23.350;2022-07-19T02:59:29;95947.22;;;19.55;86.69
14067;BME280;7108;42.684;23.350;2022-07-19T03:01:55;95946.84;;;19.49;87.33
14067;BME280;7108;42.684;23.350;2022-07-19T03:04:20;95938.69;;;19.39;87.76
14067;BME280;7108;42.684;23.350;2022-07-19T03:06:45;95944.16;;;19.35;88.47
14067;BME280;7108;42.684;23.350;2022-07-19T03:09:11;95934.78;;;19.36;88.25
14067;BME280;7108;42.684;23.350;2022-07-19T03:11:37;95939.44;;;19.39;87.67
14067;BME280;7108;42.684;23.350;2022-07-19T03:14:02;95945.69;;;19.47;87.91
14067;BME280;7108;42.684;23.350;2022-07-19T03:16:28;95953.09;;;19.46;87.33
14067;BME280;7108;42.684;23.350;2022-07-19T03:18:54;95956.22;;;19.45;88.57
14067;BME280;7108;42.684;23.350;2022-07-19T03:21:19;95952.69;;;19.48;87.87
14067;BME280;7108;42.684;23.350;2022-07-19T03:23:45;95952.34;;;19.39;87.99
14067;BME280;7108;42.684;23.350;2022-07-19T03:26:10;95953.09;;;19.50;87.51
14067;BME280;7108;42.684;23.350;2022-07-19T03:28:36;95957.38;;;19.54;87.58
14067;BME280;7108;42.684;23.350;2022-07-19T03:31:02;95948.38;;;19.50;87.12
14067;BME280;7108;42.684;23.350;2022-07-19T03:33:27;95947.63;;;19.43;87.92
14067;BME280;7108;42.684;23.350;2022-07-19T03:35:53;95967.53;;;19.50;88.52
14067;BME280;7108;42.684;23.350;2022-07-19T03:38:18;95969.50;;;19.46;88.82
14067;BME280;7108;42.684;23.350;2022-07-19T03:40:45;95974.19;;;19.49;88.91
14067;BME280;7108;42.684;23.350;2022-07-19T03:43:13;95966.75;;;19.50;89.00
14067;BME280;7108;42.684;23.350;2022-07-19T03:45:39;95962.88;;;19.40;88.48
14067;BME280;7108;42.684;23.350;2022-07-19T03:48:05;95971.88;;;19.44;90.08
14067;BME280;7108;42.684;23.350;2022-07-19T03:50:31;95976.13;;;19.49;89.86
14067;BME280;7108;42.684;23.350;2022-07-19T03:52:56;95979.66;;;19.46;89.56
14067;BME280;7108;42.684;23.350;2022-07-19T03:55:22;95972.28;;;19.36;89.66
14067;BME280;7108;42.684;23.350;2022-07-19T03:57:47;95965.66;;;19.26;90.28
14067;BME280;7108;42.684;23.350;2022-07-19T04:00:13;95976.56;;;19.37;90.29
14067;BME280;7108;42.684;23.350;2022-07-19T04:02:38;95987.53;;;19.30;91.03
14067;BME280;7108;42.684;23.350;2022-07-19T04:05:04;95995.72;;;19.30;91.73
14067;BME280;7108;42.684;23.350;2022-07-19T04:07:30;95983.22;;;19.29;91.47
14067;BME280;7108;42.684;23.350;2022-07-19T04:09:55;95968.81;;;19.18;92.86
14067;BME280;7108;42.684;23.350;2022-07-19T04:12:20;95982.81;;;19.27;93.14
14067;BME280;7108;42.684;23.350;2022-07-19T04:14:46;95976.59;;;19.26;92.60
14067;BME280;7108;42.684;23.350;2022-07-19T04:17:11;95974.25;;;19.28;92.51
14067;BME280;7108;42.684;23.350;2022-07-19T04:19:37;95992.59;;;19.35;92.57
14067;BME280;7108;42.684;23.350;2022-07-19T04:22:02;95987.47;;;19.37;93.88
14067;BME280;7108;42.684;23.350;2022-07-19T04:24:28;95983.59;;;19.34;93.89
14067;BME280;7108;42.684;23.350;2022-07-19T04:26:53;95973.81;;;19.37;93.48
14067;BME280;7108;42.684;23.350;2022-07-19T04:29:19;95973.03;;;19.43;92.72
14067;BME280;7108;42.684;23.350;2022-07-19T04:31:44;95976.53;;;19.51;92.69
14067;BME280;7108;42.684;23.350;2022-07-19T04:34:10;95975.31;;;19.55;92.77
14067;BME280;7108;42.684;23.350;2022-07-19T04:36:35;95960.91;;;19.48;92.47
14067;BME280;7108;42.684;23.350;2022-07-19T04:39:01;95973.72;;;19.68;91.31
14067;BME280;7108;42.684;23.350;2022-07-19T04:41:26;95963.53;;;19.69;91.07
14067;BME280;7108;42.684;23.350;2022-07-19T04:43:52;95970.56;;;19.76;91.44
14067;BME280;7108;42.684;23.350;2022-07-19T04:46:17;95965.50;;;19.72;90.15
14067;BME280;7108;42.684;23.350;2022-07-19T04:48:42;95990.44;;;19.84;89.87
14067;BME280;7108;42.684;23.350;2022-07-19T04:51:08;95982.28;;;19.77;90.84
14067;BME280;7108;42.684;23.350;2022-07-19T04:53:33;95984.16;;;19.87;91.18
14067;BME280;7108;42.684;23.350;2022-07-19T04:55:59;95990.03;;;19.96;90.32
14067;BME280;7108;42.684;23.350;2022-07-19T04:58:24;95991.16;;;20.02;88.69
14067;BME280;7108;42.684;23.350;2022-07-19T05:00:50;95984.94;;;19.94;88.85
14067;BME280;7108;42.684;23.350;2022-07-19T05:03:15;95976.78;;;19.84;88.21
14067;BME280;7108;42.684;23.350;2022-07-19T05:05:41;95995.53;;;19.92;88.92
14067;BME280;7108;42.684;23.350;2022-07-19T05:08:06;95990.81;;;19.86;90.93
14067;BME280;7108;42.684;23.350;2022-07-19T05:10:32;95995.91;;;19.91;90.09
14067;BME280;7108;42.684;23.350;2022-07-19T05:12:58;95988.06;;;19.89;90.20
14067;BME280;7108;42.684;23.350;2022-07-19T05:15:24;95979.09;;;19.89;90.30
14067;BME280;7108;42.684;23.350;2022-07-19T05:17:50;95974.81;;;19.95;89.89
14067;BME280;7108;42.684;23.350;2022-07-19T05:20:15;95995.78;;;20.19;90.23
14067;BME280;7108;42.684;23.350;2022-07-19T05:22:42;95970.72;;;20.20;89.56
14067;BME280;7108;42.684;23.350;2022-07-19T05:25:09;95976.19;;;20.24;87.25
14067;BME280;7108;42.684;23.350;2022-07-19T05:27:35;95991.75;;;20.37;87.03
14067;BME280;7108;42.684;23.350;2022-07-19T05:30:01;95981.97;;;20.36;86.21
14067;BME280;7108;42.684;23.350;2022-07-19T05:32:26;95984.25;;;20.44;85.64
14067;BME280;7108;42.684;23.350;2022-07-19T05:34:52;95996.78;;;20.45;84.06
14067;BME280;7108;42.684;23.350;2022-07-19T05:37:17;95991.25;;;20.52;82.66
14067;BME280;7108;42.684;23.350;2022-07-19T05:39:43;96003.69;;;20.64;83.42
14067;BME280;7108;42.684;23.350;2022-07-19T05:42:08;96003.66;;;20.67;83.00
14067;BME280;7108;42.684;23.350;2022-07-19T05:44:34;95988.00;;;20.68;82.87
14067;BME280;7108;42.684;23.350;2022-07-19T05:46:59;95995.03;;;20.76;81.06
14067;BME280;7108;42.684;23.350;2022-07-19T05:49:24;95988.69;;;20.86;80.18
14067;BME280;7108;42.684;23.350;2022-07-19T05:51:50;95985.91;;;20.89;80.09
14067;BME280;7108;42.684;23.350;2022-07-19T05:54:15;95984.66;;;20.97;79.85
14067;BME280;7108;42.684;23.350;2022-07-19T05:56:42;95990.06;;;21.08;78.17
14067;BME280;7108;42.684;23.350;2022-07-19T05:59:08;95998.59;;;21.13;79.65
14067;BME280;7108;42.684;23.350;2022-07-19T06:01:33;95994.22;;;21.22;78.78
14067;BME280;7108;42.684;23.350;2022-07-19T06:03:59;95988.63;;;21.29;78.48
14067;BME280;7108;42.684;23.350;2022-07-19T06:06:27;95977.28;;;21.31;77.01
14067;BME280;7108;42.684;23.350;2022-07-19T06:08:53;95986.94;;;21.42;77.52
14067;BME280;7108;42.684;23.350;2022-07-19T06:11:18;95986.84;;;21.53;76.28
14067;BME280;7108;42.684;23.350;2022-07-19T06:13:45;95981.09;;;21.40;77.12
14067;BME280;7108;42.684;23.350;2022-07-19T06:16:11;95984.50;;;21.55;74.58
14067;BME280;7108;42.684;23.350;2022-07-19T06:18:37;95966.84;;;21.56;74.02
14067;BME280;7108;42.684;23.350;2022-07-19T06:21:11;95978.84;;;21.69;74.67
14067;BME280;7108;42.684;23.350;2022-07-19T06:23:38;95978.06;;;21.68;74.52
14067;BME280;7108;42.684;23.350;2022-07-19T06:26:04;95987.41;;;21.74;74.01
14067;BME280;7108;42.684;23.350;2022-07-19T06:28:30;95972.56;;;21.68;73.90
14067;BME280;7108;42.684;23.350;2022-07-19T06:30:56;95977.59;;;21.73;73.38
14067;BME280;7108;42.684;23.350;2022-07-19T06:33:21;95973.22;;;21.79;71.99
14067;BME280;7108;42.684;23.350;2022-07-19T06:35:47;95957.19;;;21.77;71.88
14067;BME280;7108;42.684;23.350;2022-07-19T06:38:13;95975.09;;;21.85;70.30
14067;BME280;7108;42.684;23.350;2022-07-19T06:40:39;95967.13;;;21.94;71.14
14067;BME280;7108;42.684;23.350;2022-07-19T06:43:05;95977.16;;;22.08;70.22
14067;BME280;7108;42.684;23.350;2022-07-19T06:45:30;95949.84;;;21.97;70.70
14067;BME280;7108;42.684;23.350;2022-07-19T06:47:56;95964.63;;;22.07;67.72
14067;BME280;7108;42.684;23.350;2022-07-19T06:50:21;95966.81;;;22.19;67.42
14067;BME280;7108;42.684;23.350;2022-07-19T06:52:47;95960.09;;;22.23;66.82
14067;BME280;7108;42.684;23.350;2022-07-19T06:55:13;95972.91;;;22.33;67.78
14067;BME280;7108;42.684;23.350;2022-07-19T06:57:39;95965.88;;;22.32;66.70
14067;BME280;7108;42.684;23.350;2022-07-19T07:00:05;95970.84;;;22.41;65.81
14067;BME280;7108;42.684;23.350;2022-07-19T07:02:32;95968.16;;;22.37;64.42
14067;BME280;7108;42.684;23.350;2022-07-19T07:04:58;95963.78;;;22.40;62.99
14067;BME280;7108;42.684;23.350;2022-07-19T07:07:23;95969.06;;;22.53;61.65
14067;BME280;7108;42.684;23.350;2022-07-19T07:09:49;95955.31;;;22.53;60.85
14067;BME280;7108;42.684;23.350;2022-07-19T07:12:14;95966.13;;;22.67;61.38
14067;BME280;7108;42.684;23.350;2022-07-19T07:14:40;95948.84;;;22.67;59.08
14067;BME280;7108;42.684;23.350;2022-07-19T07:17:05;95961.22;;;22.78;58.26
14067;BME280;7108;42.684;23.350;2022-07-19T07:19:30;95950.28;;;22.75;58.05
14067;BME280;7108;42.684;23.350;2022-07-19T07:21:56;95933.56;;;22.66;59.40
14067;BME280;7108;42.684;23.350;2022-07-19T07:24:25;95936.59;;;22.71;56.25
14067;BME280;7108;42.684;23.350;2022-07-19T07:26:51;95959.38;;;22.95;53.54
14067;BME280;7108;42.684;23.350;2022-07-19T07:29:16;95959.31;;;22.98;54.50
14067;BME280;7108;42.684;23.350;2022-07-19T07:31:41;95959.28;;;23.02;53.10
14067;BME280;7108;42.684;23.350;2022-07-19T07:34:07;95958.75;;;23.10;54.16
14067;BME280;7108;42.684;23.350;2022-07-19T07:36:32;95958.25;;;23.15;54.98
14067;BME280;7108;42.684;23.350;2022-07-19T07:38:58;95950.72;;;23.19;50.76
14067;BME280;7108;42.684;23.350;2022-07-19T07:41:23;95938.16;;;23.18;48.72
14067;BME280;7108;42.684;23.350;2022-07-19T07:43:49;95937.88;;;23.32;50.37
14067;BME280;7108;42.684;23.350;2022-07-19T07:46:14;95959.34;;;23.40;49.27
14067;BME280;7108;42.684;23.350;2022-07-19T07:48:40;95939.66;;;23.42;48.50
14067;BME280;7108;42.684;23.350;2022-07-19T07:51:05;95944.91;;;23.56;48.04
14067;BME280;7108;42.684;23.350;2022-07-19T07:53:30;95938.41;;;23.66;47.40
14067;BME280;7108;42.684;23.350;2022-07-19T07:55:56;95936.75;;;23.72;45.13
14067;BME280;7108;42.684;23.350;2022-07-19T07:58:22;95939.19;;;23.85;44.49
14067;BME280;7108;42.684;23.350;2022-07-19T08:00:47;95927.22;;;23.76;45.42
14067;BME280;7108;42.684;23.350;2022-07-19T08:03:12;95930.88;;;23.89;45.75
14067;BME280;7108;42.684;23.350;2022-07-19T08:05:38;95936.56;;;23.98;45.58
14067;BME280;7108;42.684;23.350;2022-07-19T08:08:04;95938.69;;;24.10;43.90
14067;BME280;7108;42.684;23.350;2022-07-19T08:10:31;95938.94;;;24.15;43.04
14067;BME280;7108;42.684;23.350;2022-07-19T08:12:58;95933.44;;;24.15;44.27
14067;BME280;7108;42.684;23.350;2022-07-19T08:15:24;95935.34;;;24.18;41.09
14067;BME280;7108;42.684;23.350;2022-07-19T08:17:49;95933.78;;;24.17;41.98
14067;BME280;7108;42.684;23.350;2022-07-19T08:20:15;95943.66;;;24.34;39.47
14067;BME280;7108;42.684;23.350;2022-07-19T08:22:40;95945.91;;;24.39;40.30
14067;BME280;7108;42.684;23.350;2022-07-19T08:25:07;95933.28;;;24.42;38.76
14067;BME280;7108;42.684;23.350;2022-07-19T08:27:33;95920.25;;;24.42;39.17
14067;BME280;7108;42.684;23.350;2022-07-19T08:29:59;95932.69;;;24.50;38.47
14067;BME280;7108;42.684;23.350;2022-07-19T08:32:25;95929.41;;;24.55;38.52
14067;BME280;7108;42.684;23.350;2022-07-19T08:34:50;95916.03;;;24.53;39.12
14067;BME280;7108;42.684;23.350;2022-07-19T08:37:16;95931.47;;;24.67;38.98
14067;BME280;7108;42.684;23.350;2022-07-19T08:39:41;95914.00;;;24.73;38.85
14067;BME280;7108;42.684;23.350;2022-07-19T08:42:07;95920.19;;;24.77;38.60
14067;BME280;7108;42.684;23.350;2022-07-19T08:44:35;95925.84;;;24.86;38.93
14067;BME280;7108;42.684;23.350;2022-07-19T08:47:04;95921.81;;;24.91;38.01
14067;BME280;7108;42.684;23.350;2022-07-19T08:49:30;95919.47;;;24.89;37.28
14067;BME280;7108;42.684;23.350;2022-07-19T08:51:56;95926.91;;;24.92;37.67
14067;BME280;7108;42.684;23.350;2022-07-19T08:54:22;95915.88;;;24.92;39.41
14067;BME280;7108;42.684;23.350;2022-07-19T08:56:47;95925.75;;;25.06;38.58
14067;BME280;7108;42.684;23.350;2022-07-19T08:59:31;95909.38;;;24.99;38.62
14067;BME280;7108;42.684;23.350;2022-07-19T09:01:57;95920.78;;;25.01;39.78
14067;BME280;7108;42.684;23.350;2022-07-19T09:04:23;95914.56;;;25.13;38.16
14067;BME280;7108;42.684;23.350;2022-07-19T09:06:55;95920.69;;;25.20;37.92
14067;BME280;7108;42.684;23.350;2022-07-19T09:09:26;95900.88;;;25.09;37.91
14067;BME280;7108;42.684;23.350;2022-07-19T09:11:53;95906.91;;;25.20;37.70
14067;BME280;7108;42.684;23.350;2022-07-19T09:14:24;95919.94;;;25.32;36.78
14067;BME280;7108;42.684;23.350;2022-07-19T09:17:11;95908.47;;;25.33;37.01
14067;BME280;7108;42.684;23.350;2022-07-19T09:19:44;95895.41;;;25.21;36.90
14067;BME280;7108;42.684;23.350;2022-07-19T09:22:13;95900.09;;;25.37;37.17
14067;BME280;7108;42.684;23.350;2022-07-19T09:24:41;95890.03;;;25.30;37.42
14067;BME280;7108;42.684;23.350;2022-07-19T09:27:15;95898.03;;;25.41;37.42
14067;BME280;7108;42.684;23.350;2022-07-19T09:29:43;95892.75;;;25.46;37.50
14067;BME280;7108;42.684;23.350;2022-07-19T09:32:18;95906.78;;;25.52;36.53
14067;BME280;7108;42.684;23.350;2022-07-19T09:34:58;95882.47;;;25.47;35.83
14067;BME280;7108;42.684;23.350;2022-07-19T09:37:29;95896.31;;;25.59;36.68
14067;BME280;7108;42.684;23.350;2022-07-19T09:42:42;95889.03;;;25.65;35.57
14067;BME280;7108;42.684;23.350;2022-07-19T09:45:12;95885.72;;;25.70;34.79
14067;BME280;7108;42.684;23.350;2022-07-19T09:47:40;95891.84;;;25.78;36.10
14067;BME280;7108;42.684;23.350;2022-07-19T09:50:09;95879.84;;;25.84;37.03
14067;BME280;7108;42.684;23.350;2022-07-19T09:52:35;95867.81;;;25.90;37.36
14067;BME280;7108;42.684;23.350;2022-07-19T09:55:03;95873.25;;;26.06;36.55
14067;BME280;7108;42.684;23.350;2022-07-19T09:57:33;95882.63;;;26.21;36.12
14067;BME280;7108;42.684;23.350;2022-07-19T09:59:59;95872.25;;;26.25;36.59
14067;BME280;7108;42.684;23.350;2022-07-19T10:02:27;95887.63;;;26.26;35.82
14067;BME280;7108;42.684;23.350;2022-07-19T10:04:54;95877.88;;;26.22;35.35
14067;BME280;7108;42.684;23.350;2022-07-19T10:07:22;95875.78;;;26.13;36.09
14067;BME280;7108;42.684;23.350;2022-07-19T10:09:50;95876.22;;;26.12;36.02
14067;BME280;7108;42.684;23.350;2022-07-19T10:12:15;95868.16;;;26.05;36.04
14067;BME280;7108;42.684;23.350;2022-07-19T10:14:42;95875.56;;;26.08;36.72
14067;BME280;7108;42.684;23.350;2022-07-19T10:17:30;95873.78;;;26.01;37.10
14067;BME280;7108;42.684;23.350;2022-07-19T10:19:58;95872.31;;;25.84;35.90
14067;BME280;7108;42.684;23.350;2022-07-19T10:22:25;95869.22;;;25.82;36.29
14067;BME280;7108;42.684;23.350;2022-07-19T10:24:53;95878.94;;;25.75;37.52
14067;BME280;7108;42.684;23.350;2022-07-19T10:27:57;95871.22;;;25.94;36.72
14067;BME280;7108;42.684;23.350;2022-07-19T10:30:24;95872.22;;;26.00;37.46
14067;BME280;7108;42.684;23.350;2022-07-19T10:32:52;95869.38;;;26.04;36.71
14067;BME280;7108;42.684;23.350;2022-07-19T10:37:49;95855.22;;;26.02;36.51
14067;BME280;7108;42.684;23.350;2022-07-19T10:40:47;95866.50;;;25.95;37.27
14067;BME280;7108;42.684;23.350;2022-07-19T10:43:17;95860.44;;;26.00;36.92
14067;BME280;7108;42.684;23.350;2022-07-19T10:48:37;95854.66;;;26.32;35.76
14067;BME280;7108;42.684;23.350;2022-07-19T10:51:04;95849.13;;;26.32;35.72
14067;BME280;7108;42.684;23.350;2022-07-19T10:56:24;95854.16;;;26.83;36.53
14067;BME280;7108;42.684;23.350;2022-07-19T10:59:02;95848.50;;;26.99;35.40
14067;BME280;7108;42.684;23.350;2022-07-19T11:01:30;95833.41;;;27.12;35.17
14067;BME280;7108;42.684;23.350;2022-07-19T11:04:34;95839.97;;;27.27;36.17
14067;BME280;7108;42.684;23.350;2022-07-19T11:07:21;95830.13;;;27.26;34.84
14067;BME280;7108;42.684;23.350;2022-07-19T11:09:55;95821.94;;;27.22;35.35
14067;BME280;7108;42.684;23.350;2022-07-19T11:12:36;95838.03;;;27.15;35.00
14067;BME280;7108;42.684;23.350;2022-07-19T11:15:08;95831.56;;;26.97;35.09
14067;BME280;7108;42.684;23.350;2022-07-19T11:17:34;95834.31;;;27.09;35.93
14067;BME280;7108;42.684;23.350;2022-07-19T11:22:35;95820.38;;;27.34;35.22
14067;BME280;7108;42.684;23.350;2022-07-19T11:25:03;95829.25;;;27.29;35.04
14067;BME280;7108;42.684;23.350;2022-07-19T11:27:29;95808.97;;;27.11;34.74
14067;BME280;7108;42.684;23.350;2022-07-19T11:29:56;95818.16;;;26.95;35.13
14067;BME280;7108;42.684;23.350;2022-07-19T11:32:23;95819.47;;;26.69;34.77
14067;BME280;7108;42.684;23.350;2022-07-19T11:34:56;95814.63;;;26.61;35.01
14067;BME280;7108;42.684;23.350;2022-07-19T11:37:24;95825.88;;;26.79;34.89
14067;BME280;7108;42.684;23.350;2022-07-19T11:39:51;95815.72;;;27.10;35.82
14067;BME280;7108;42.684;23.350;2022-07-19T11:42:29;95819.19;;;27.44;33.97
14067;BME280;7108;42.684;23.350;2022-07-19T11:44:55;95802.06;;;27.58;33.28
14067;BME280;7108;42.684;23.350;2022-07-19T11:47:21;95816.59;;;27.49;33.09
14067;BME280;7108;42.684;23.350;2022-07-19T11:49:47;95787.78;;;27.38;33.56
14067;BME280;7108;42.684;23.350;2022-07-19T11:52:12;95800.44;;;27.48;33.82
14067;BME280;7108;42.684;23.350;2022-07-19T11:54:38;95806.00;;;27.48;33.39
14067;BME280;7108;42.684;23.350;2022-07-19T11:57:26;95809.09;;;27.50;32.79
14067;BME280;7108;42.684;23.350;2022-07-19T11:59:52;95799.94;;;27.40;32.76
14067;BME280;7108;42.684;23.350;2022-07-19T12:02:17;95809.59;;;27.57;34.35
14067;BME280;7108;42.684;23.350;2022-07-19T12:04:43;95807.66;;;27.67;33.92
14067;BME280;7108;42.684;23.350;2022-07-19T12:07:08;95805.25;;;27.78;33.22
14067;BME280;7108;42.684;23.350;2022-07-19T12:09:34;95787.41;;;27.79;32.86
14067;BME280;7108;42.684;23.350;2022-07-19T12:12:14;95798.13;;;27.98;31.75
14067;BME280;7108;42.684;23.350;2022-07-19T12:14:40;95794.44;;;28.01;31.54
14067;BME280;7108;42.684;23.350;2022-07-19T12:17:16;95798.34;;;28.12;31.96
14067;BME280;7108;42.684;23.350;2022-07-19T12:19:44;95799.09;;;28.04;31.55
14067;BME280;7108;42.684;23.350;2022-07-19T12:24:54;95788.50;;;27.51;32.27
14067;BME280;7108;42.684;23.350;2022-07-19T12:27:19;95783.00;;;27.38;32.41
14067;BME280;7108;42.684;23.350;2022-07-19T12:29:48;95794.16;;;27.47;32.59
14067;BME280;7108;42.684;23.350;2022-07-19T12:32:26;95793.38;;;27.47;32.03
14067;BME280;7108;42.684;23.350;2022-07-19T12:34:57;95789.41;;;27.57;31.94
14067;BME280;7108;42.684;23.350;2022-07-19T12:37:36;95781.13;;;27.57;32.28
14067;BME280;7108;42.684;23.350;2022-07-19T12:45:08;95778.53;;;27.11;32.89
14067;BME280;7108;42.684;23.350;2022-07-19T12:47:34;95765.97;;;26.97;32.93
14067;BME280;7108;42.684;23.350;2022-07-19T12:50:00;95789.50;;;27.02;32.92
14067;BME280;7108;42.684;23.350;2022-07-19T12:52:25;95786.09;;;26.98;32.50
14067;BME280;7108;42.684;23.350;2022-07-19T12:54:51;95782.44;;;27.01;33.07
14067;BME280;7108;42.684;23.350;2022-07-19T12:57:16;95757.00;;;26.93;32.15
14067;BME280;7108;42.684;23.350;2022-07-19T12:59:42;95774.78;;;27.05;31.91
14067;BME280;7108;42.684;23.350;2022-07-19T13:02:13;95765.38;;;27.02;32.72
14067;BME280;7108;42.684;23.350;2022-07-19T13:04:40;95755.28;;;27.08;32.61
14067;BME280;7108;42.684;23.350;2022-07-19T13:07:07;95746.88;;;27.12;31.99
14067;BME280;7108;42.684;23.350;2022-07-19T13:09:36;95749.44;;;27.27;32.66
14067;BME280;7108;42.684;23.350;2022-07-19T13:12:04;95761.78;;;27.35;31.65
14067;BME280;7108;42.684;23.350;2022-07-19T13:14:31;95749.28;;;27.31;31.88
14067;BME280;7108;42.684;23.350;2022-07-19T13:16:57;95748.78;;;27.23;32.19
14067;BME280;7108;42.684;23.350;2022-07-19T13:19:22;95759.97;;;27.20;32.27
14067;BME280;7108;42.684;23.350;2022-07-19T13:21:48;95755.88;;;27.03;32.35